createdAt,value
2022-08-18T00:01:24.931Z,958.42
2022-08-18T00:06:28.009Z,958.44
2022-08-18T00:11:28.463Z,958.56
2022-08-18T00:16:29.765Z,958.61
2022-08-18T00:21:31.639Z,958.5
2022-08-18T00:26:36.754Z,958.47
2022-08-18T00:31:34.312Z,958.45
2022-08-18T00:36:36.310Z,958.6
2022-08-18T00:41:38.357Z,958.59
2022-08-18T00:46:46.276Z,958.69
2022-08-18T00:51:47.994Z,958.88
2022-08-18T00:56:49.876Z,958.94
2022-08-18T01:01:51.732Z,958.77
2022-08-18T01:06:53.788Z,958.59
2022-08-18T01:11:55.301Z,958.57
2022-08-18T01:16:57.921Z,958.6
2022-08-18T01:21:58.190Z,958.8
2022-08-18T01:26:59.662Z,959.04
2022-08-18T01:32:00.957Z,958.95
2022-08-18T01:37:02.390Z,958.83
2022-08-18T01:42:04.582Z,958.85
2022-08-18T01:47:06.047Z,958.85
2022-08-18T01:52:08.045Z,958.76
2022-08-18T01:57:10.001Z,958.79
2022-08-18T02:02:12.346Z,958.82
2022-08-18T02:07:14.030Z,958.79
2022-08-18T02:12:16.210Z,958.67
2022-08-18T02:17:17.426Z,958.62
2022-08-18T02:22:18.957Z,958.65
2022-08-18T02:27:20.788Z,958.76
2022-08-18T02:32:22.830Z,958.78
2022-08-18T02:37:24.965Z,958.72
2022-08-18T02:42:26.203Z,958.6
2022-08-18T02:47:31.577Z,958.56
2022-08-18T02:52:29.489Z,958.57
2022-08-18T02:57:31.106Z,958.71
2022-08-18T03:02:32.289Z,958.71
2022-08-18T03:07:33.945Z,958.62
2022-08-18T03:12:35.456Z,958.49
2022-08-18T03:17:36.943Z,958.55
2022-08-18T03:22:38.743Z,958.52
2022-08-18T03:27:39.978Z,958.57
2022-08-18T03:32:45.628Z,958.55
2022-08-18T03:37:44.057Z,958.56
2022-08-18T03:42:45.396Z,958.48
2022-08-18T03:47:47.404Z,958.44
2022-08-18T03:52:49.297Z,958.41
2022-08-18T03:57:51.651Z,958.29
2022-08-18T04:02:52.881Z,958.34
2022-08-18T04:07:54.097Z,958.2
2022-08-18T04:12:55.414Z,958.42
2022-08-18T04:18:03.712Z,958.36
2022-08-18T04:22:59.029Z,958.35
2022-08-18T04:28:01.052Z,958.33
2022-08-18T04:33:02.428Z,958.19
2022-08-18T04:38:03.897Z,958.24
2022-08-18T04:43:05.891Z,958.11
2022-08-18T04:48:07.678Z,958.2
2022-08-18T04:53:09.604Z,958.34
2022-08-18T04:58:11.039Z,958.34
2022-08-18T05:03:13.198Z,958.28
2022-08-18T05:08:14.723Z,958.28
2022-08-18T05:13:16.828Z,958.51
2022-08-18T05:18:18.438Z,958.57
2022-08-18T05:23:19.647Z,958.49
2022-08-18T05:28:21.423Z,958.42
2022-08-18T05:33:23.142Z,958.45
2022-08-18T05:48:28.242Z,958.91
2022-08-18T06:03:44.933Z,958.79
2022-08-18T06:08:34.859Z,958.91
2022-08-18T06:33:42.992Z,959.01
2022-08-18T06:48:48.143Z,958.92
2022-08-18T06:53:49.374Z,958.81
2022-08-18T06:58:53.172Z,958.81
2022-08-18T07:03:52.857Z,958.78
2022-08-18T07:08:54.622Z,958.78
2022-08-18T07:14:14.735Z,958.71
2022-08-18T07:18:58.494Z,958.63
2022-08-18T07:24:21.370Z,958.56
2022-08-18T07:29:02.129Z,958.61
2022-08-18T07:34:04.250Z,958.62
2022-08-18T07:39:05.693Z,958.68
2022-08-18T07:44:11.375Z,958.69
2022-08-18T07:49:08.491Z,958.51
2022-08-18T07:54:20.248Z,958.6
2022-08-18T07:59:11.617Z,958.55
2022-08-18T08:04:25.206Z,958.6
2022-08-18T08:09:14.663Z,958.73
2022-08-18T08:14:15.885Z,958.64
2022-08-18T08:19:17.582Z,958.53
2022-08-18T08:24:19.632Z,958.63
2022-08-18T08:29:21.493Z,958.63
2022-08-18T08:34:23.429Z,958.7
2022-08-18T08:39:24.850Z,958.61
2022-08-18T08:44:26.094Z,958.42
2022-08-18T08:49:27.768Z,958.33
2022-08-18T08:54:29.838Z,958.28
2022-08-18T08:59:31.684Z,958.2
2022-08-18T09:04:32.930Z,958.16
2022-08-18T09:09:34.854Z,958.17
2022-08-18T09:14:36.378Z,958
2022-08-18T09:19:38.282Z,958.07
2022-08-18T09:24:39.653Z,958.23
2022-08-18T09:29:43.890Z,958.24
2022-08-18T09:34:45.422Z,958.23
2022-08-18T09:39:43.733Z,958.18
2022-08-18T09:44:44.918Z,958.15
2022-08-18T09:49:47.730Z,958.21
2022-08-18T09:54:48.342Z,958.04
2022-08-18T09:59:50.412Z,957.91
2022-08-18T10:04:51.796Z,958.14
2022-08-18T10:09:53.663Z,958.05
2022-08-18T10:14:55.388Z,958.02
2022-08-18T10:19:56.616Z,958.16
2022-08-18T10:24:58.074Z,958.29
2022-08-18T10:29:59.765Z,958.19
2022-08-18T10:35:01.570Z,958.09
2022-08-18T10:40:02.995Z,958.08
2022-08-18T10:45:06.065Z,958.18
2022-08-18T10:50:06.679Z,957.96
2022-08-18T10:55:10.156Z,957.84
2022-08-18T11:00:10.310Z,957.81
2022-08-18T11:05:11.859Z,957.83
2022-08-18T11:10:28.945Z,957.81
2022-08-18T11:15:21.391Z,957.77
2022-08-18T11:20:17.862Z,957.64
2022-08-18T11:25:18.610Z,957.44
2022-08-18T11:30:20.442Z,957.63
2022-08-18T11:35:22.062Z,957.25
2022-08-18T11:45:25.962Z,957.13
2022-08-18T11:50:28.029Z,957.32
2022-08-18T11:55:29.552Z,956.98
2022-08-18T12:00:31.364Z,956.83
2022-08-18T12:05:45.798Z,956.63
2022-08-18T12:10:35.330Z,956.43
2022-08-18T12:15:44.504Z,956.35
2022-08-18T12:20:38.533Z,956.31
2022-08-18T12:25:39.946Z,956.27
2022-08-18T12:30:42.136Z,956.55
2022-08-18T12:35:42.933Z,956.63
2022-08-18T12:40:44.347Z,956.48
2022-08-18T12:45:45.821Z,956.3
2022-08-18T12:50:50.410Z,956.36
2022-08-18T12:55:48.907Z,956.4
2022-08-18T13:00:51.335Z,956.52
2022-08-18T13:05:51.480Z,956.45
2022-08-18T13:10:56.262Z,956.35
2022-08-18T13:15:55.891Z,956.34
2022-08-18T13:20:56.589Z,956.24
2022-08-18T13:25:59.287Z,956.15
2022-08-18T13:30:59.529Z,956.03
2022-08-18T13:36:01.082Z,956.03
2022-08-18T13:41:02.618Z,955.97
2022-08-18T13:46:04.315Z,955.96
2022-08-18T13:51:05.638Z,955.87
2022-08-18T13:56:07.596Z,956.02
2022-08-18T14:01:40.074Z,956.02
2022-08-18T14:06:13.002Z,956.07
2022-08-18T14:11:12.430Z,955.98
2022-08-18T14:16:16.329Z,955.83
2022-08-18T14:21:15.413Z,955.66
2022-08-18T14:26:17.476Z,955.48
2022-08-18T14:31:20.660Z,955.32
2022-08-18T14:36:28.952Z,955.14
2022-08-18T14:41:25.493Z,955.18
2022-08-18T14:46:25.065Z,955.16
2022-08-18T14:51:26.096Z,955.11
2022-08-18T14:56:28.405Z,955.06
2022-08-18T15:01:28.929Z,955.21
2022-08-18T15:06:30.261Z,955.14
2022-08-18T15:11:32.030Z,955.13
2022-08-18T15:16:33.219Z,955.15
2022-08-18T15:21:35.857Z,955.14
2022-08-18T15:26:36.384Z,955.18
2022-08-18T15:31:56.594Z,955.16
2022-08-18T15:36:40.145Z,955.2
2022-08-18T15:41:44.020Z,955.23
2022-08-18T15:46:47.226Z,955.17
2022-08-18T15:51:46.042Z,955.08
2022-08-18T15:56:58.016Z,955.06
2022-08-18T16:01:50.095Z,955.05
2022-08-18T16:06:51.430Z,955.01
2022-08-18T16:11:53.066Z,955.01
2022-08-18T16:16:55.968Z,954.94
2022-08-18T16:21:57.097Z,954.88
2022-08-18T16:26:58.718Z,954.71
2022-08-18T16:32:00.731Z,954.67
2022-08-18T16:37:02.698Z,954.66
2022-08-18T16:42:04.352Z,954.63
2022-08-18T16:47:06.384Z,954.62
2022-08-18T16:52:07.750Z,954.7
2022-08-18T16:57:09.584Z,954.83
2022-08-18T17:02:10.987Z,954.82
2022-08-18T17:07:13.095Z,954.81
2022-08-18T17:12:14.510Z,954.85
2022-08-18T17:17:15.941Z,954.92
2022-08-18T17:22:17.059Z,955
2022-08-18T17:27:25.565Z,955.02
2022-08-18T17:32:27.404Z,955.08
2022-08-18T17:37:29.318Z,955.1
2022-08-18T17:42:30.996Z,955.18
2022-08-18T17:47:33.014Z,955.39
2022-08-18T17:52:34.915Z,955.56
2022-08-18T17:57:36.754Z,955.77
2022-08-18T18:02:38.064Z,955.91
2022-08-18T18:07:39.761Z,956
2022-08-18T18:12:41.698Z,956.1
2022-08-18T18:17:43.244Z,956.09
2022-08-18T18:22:44.573Z,956.22
2022-08-18T18:27:48.439Z,956.29
2022-08-18T18:32:48.228Z,956.35
2022-08-18T18:37:49.969Z,956.38
2022-08-18T18:42:51.433Z,956.34
2022-08-18T18:47:53.611Z,956.35
2022-08-18T18:52:55.497Z,956.39
2022-08-18T18:57:57.668Z,956.41
2022-08-18T19:02:59.071Z,956.51
2022-08-18T19:08:00.291Z,956.49
2022-08-18T19:13:01.620Z,956.53
2022-08-18T19:18:02.886Z,956.6
2022-08-18T19:23:04.751Z,956.75
2022-08-18T19:28:06.103Z,956.92
2022-08-18T19:33:08.266Z,956.88
2022-08-18T19:38:10.089Z,957
2022-08-18T19:43:11.702Z,957.04
2022-08-18T19:48:16.363Z,957.11
2022-08-18T19:53:14.487Z,957.05
2022-08-18T19:58:15.928Z,957.04
2022-08-18T20:03:18.049Z,957.1
2022-08-18T20:08:19.885Z,957.23
2022-08-18T20:13:21.548Z,957.21
2022-08-18T20:23:25.025Z,957.49
2022-08-18T20:48:32.654Z,957.28
2022-08-18T20:53:33.854Z,957.42
2022-08-18T21:23:42.865Z,957.8
2022-08-18T21:33:46.450Z,957.82
2022-08-18T21:43:50.060Z,957.76
2022-08-18T21:48:52.015Z,957.53
2022-08-18T21:53:53.202Z,957.41
2022-08-18T21:58:55.354Z,957.46
2022-08-18T22:14:02.013Z,957.71
2022-08-18T22:19:02.746Z,957.83
2022-08-18T22:24:04.018Z,957.83
2022-08-18T22:29:05.825Z,957.84
2022-08-18T22:34:07.684Z,957.74
2022-08-18T22:39:09.031Z,957.68
2022-08-18T22:44:10.793Z,957.43
2022-08-18T22:49:12.246Z,957.12
2022-08-18T22:54:14.363Z,957.03
2022-08-18T22:59:19.557Z,956.85
2022-08-18T23:04:18.101Z,956.62
2022-08-18T23:09:19.778Z,956.53
2022-08-18T23:14:21.348Z,956.46
2022-08-18T23:19:22.827Z,956.41
2022-08-18T23:24:24.963Z,956.41
2022-08-18T23:29:26.980Z,956.35
2022-08-18T23:34:28.902Z,956.39
2022-08-18T23:39:30.784Z,956.7
2022-08-18T23:44:32.780Z,956.79
2022-08-18T23:49:34.817Z,957.09
2022-08-18T23:54:36.486Z,957.42
2022-08-18T23:59:37.803Z,957.64
